Time;durP1;ratioP1;P1;durP2;ratioP2;P2;SDS_P1;SDS_P2;PMS_P1;PMS_P2;Temp;Humidity;BMP_temperature;BMP_pressure;BME280_temperature;BME280_humidity;BME280_pressure;Samples;Min_cycle;Max_cycle;Signal;HPM_P1;HPM_P2
2021/11/24 00:01:10;;;;;;;;;21.75;20.50;;;;;7.30;71.74;101872.56;4994041;28;46577;-78
2021/11/24 00:03:36;;;;;;;;;26.50;21.75;;;;;7.20;71.79;101863.38;4994058;28;45691;-79
2021/11/24 00:06:02;;;;;;;;;28.25;25.25;;;;;7.25;71.80;101869.25;4993676;28;45707;-77
2021/11/24 00:08:27;;;;;;;;;26.50;22.00;;;;;7.18;71.74;101858.22;4993574;28;45831;-78
2021/11/24 00:10:53;;;;;;;;;24.25;21.50;;;;;7.25;71.69;101858.84;4994116;28;45708;-77
2021/11/24 00:13:19;;;;;;;;;25.50;22.00;;;;;7.29;71.69;101862.19;4993806;28;46599;-80
2021/11/24 00:15:44;;;;;;;;;27.25;21.50;;;;;7.27;71.76;101858.78;4993755;28;45570;-78
2021/11/24 00:18:10;;;;;;;;;31.00;23.00;;;;;7.16;71.92;101841.81;4993231;28;45638;-76
2021/11/24 00:20:35;;;;;;;;;21.00;18.00;;;;;7.16;71.95;101843.56;4993661;28;45596;-78
2021/11/24 00:26:22;;;;;;;;;24.00;20.25;;;;;7.20;71.77;101858.16;4996940;28;45640;-79
2021/11/24 00:28:47;;;;;;;;;26.25;21.00;;;;;7.18;71.91;101851.31;4998800;28;45770;-80
2021/11/24 00:31:13;;;;;;;;;25.25;20.25;;;;;7.16;71.99;101860.03;4999456;28;46768;-79
2021/11/24 00:33:38;;;;;;;;;25.50;20.00;;;;;7.15;72.30;101855.72;4999845;28;45743;-77
2021/11/24 00:36:04;;;;;;;;;28.25;20.00;;;;;7.14;72.07;101856.63;4995192;28;45944;-78
2021/11/24 00:41:51;;;;;;;;;27.75;21.00;;;;;7.05;72.30;101838.75;4993008;28;46182;-77
2021/11/24 00:44:16;;;;;;;;;22.00;19.00;;;;;7.02;72.47;101835.38;4975679;28;46015;-78
2021/11/24 00:46:43;;;;;;;;;30.50;26.25;;;;;7.04;72.31;101846.59;4975565;28;45673;-78
2021/11/24 00:49:09;;;;;;;;;24.50;21.50;;;;;7.06;72.57;101847.41;4992950;28;45709;-78
2021/11/24 00:51:35;;;;;;;;;23.00;20.25;;;;;7.07;72.63;101849.13;4993218;28;46362;-78
2021/11/24 00:54:00;;;;;;;;;26.50;21.00;;;;;7.07;72.51;101851.72;4992704;28;46411;-75
2021/11/24 00:56:26;;;;;;;;;24.75;21.75;;;;;7.07;72.40;101849.13;4992667;28;45820;-77
2021/11/24 00:58:51;;;;;;;;;24.25;22.00;;;;;7.05;72.61;101840.50;4993225;28;45831;-79
2021/11/24 01:01:16;;;;;;;;;24.00;17.75;;;;;7.01;72.38;101826.75;4993057;28;46323;-78
2021/11/24 01:03:42;;;;;;;;;26.50;25.00;;;;;7.05;72.48;101828.31;4995618;28;45637;-77
2021/11/24 01:06:07;;;;;;;;;22.25;20.50;;;;;7.05;72.38;101830.06;4997117;28;45919;-78
2021/11/24 01:11:55;;;;;;;;;26.00;21.00;;;;;7.06;72.69;101824.81;4997768;28;45667;-79
2021/11/24 01:14:20;;;;;;;;;23.75;21.50;;;;;7.05;72.73;101827.47;4998360;28;45674;-78
2021/11/24 01:16:46;;;;;;;;;22.50;17.25;;;;;6.73;72.62;101769.59;4979156;28;46109;-78
2021/11/24 01:19:12;;;;;;;;;26.75;20.25;;;;;7.01;72.79;101818.91;4996685;28;45716;-80
2021/11/24 01:21:37;;;;;;;;;26.50;23.25;;;;;6.98;72.60;101818.16;4997050;28;46391;-79
2021/11/24 01:24:03;;;;;;;;;21.75;16.25;;;;;6.80;72.86;101790.22;4999621;28;46263;-77
2021/11/24 01:26:28;;;;;;;;;22.25;17.75;;;;;6.95;72.90;101811.34;4998900;28;45863;-78
2021/11/24 01:28:54;;;;;;;;;13.75;12.50;;;;;6.93;72.89;101809.66;4998841;28;45608;-79
2021/11/24 01:31:19;;;;;;;;;24.25;21.50;;;;;6.85;72.75;101796.09;4998672;28;45639;-79
2021/11/24 01:33:45;;;;;;;;;24.25;20.75;;;;;6.93;73.06;101804.47;4999714;28;45959;-79
2021/11/24 01:36:10;;;;;;;;;24.50;22.25;;;;;6.91;72.84;101814.09;4999871;28;45597;-79
2021/11/24 01:41:57;;;;;;;;;22.00;20.00;;;;;6.79;73.21;101785.91;4998565;28;45802;-78
2021/11/24 01:44:26;;;;;;;;;19.00;16.00;;;;;6.83;73.18;101801.34;4998420;28;46428;-76
2021/11/24 01:46:58;;;;;;;;;19.75;18.00;;;;;6.81;73.35;101797.94;4999066;28;45586;-79
2021/11/24 01:49:24;;;;;;;;;21.25;18.25;;;;;6.48;73.52;101749.72;4999676;28;45639;-78
2021/11/24 01:51:50;;;;;;;;;22.50;19.00;;;;;6.60;73.31;101765.72;4999165;28;45656;-78
2021/11/24 01:54:18;;;;;;;;;21.50;17.75;;;;;6.77;73.28;101792.91;4998470;28;46112;-78
2021/11/24 01:56:43;;;;;;;;;27.00;22.75;;;;;6.74;73.36;101794.72;5011212;28;45528;-78
2021/11/24 01:59:11;;;;;;;;;31.00;22.75;;;;;6.70;73.32;101779.25;5018968;28;45521;-77
2021/11/24 02:01:38;;;;;;;;;22.50;17.75;;;;;6.74;73.40;101780.84;5018959;28;45717;-79
2021/11/24 02:04:04;;;;;;;;;29.50;22.00;;;;;6.45;73.45;101737.63;5022923;28;46141;-79
2021/11/24 02:06:30;;;;;;;;;25.00;20.50;;;;;6.70;73.61;101782.69;5023611;28;45664;-80
2021/11/24 02:12:17;;;;;;;;;22.75;20.75;;;;;6.68;73.45;101773.25;5017675;28;46081;-78
2021/11/24 02:14:44;;;;;;;;;23.75;21.00;;;;;6.65;73.88;101769.00;5015367;28;45762;-80
2021/11/24 02:17:13;;;;;;;;;26.00;20.50;;;;;6.62;73.78;101770.88;5016239;28;45885;-77
2021/11/24 02:19:38;;;;;;;;;18.75;17.25;;;;;6.56;73.66;101774.56;5016007;28;45561;-77
2021/11/24 02:22:04;;;;;;;;;18.75;17.50;;;;;6.57;73.72;101776.25;5015887;28;46764;-77
2021/11/24 02:27:51;;;;;;;;;31.50;23.00;;;;;6.54;74.08;101767.69;5015369;28;45700;-77
2021/11/24 02:30:17;;;;;;;;;21.00;18.50;;;;;6.54;74.31;101760.72;4997901;28;45640;-77
2021/11/24 02:32:42;;;;;;;;;26.00;24.00;;;;;6.50;73.98;101763.50;5015280;28;45762;-79
2021/11/24 02:35:08;;;;;;;;;23.25;20.25;;;;;6.48;73.86;101762.72;5015239;28;45642;-80
2021/11/24 02:37:33;;;;;;;;;22.50;19.25;;;;;6.25;74.32;101727.94;5015322;28;45694;-80
2021/11/24 02:39:59;;;;;;;;;21.00;17.00;;;;;6.44;74.48;101755.91;5015803;28;45543;-79
2021/11/24 02:42:24;;;;;;;;;28.25;22.25;;;;;6.39;74.36;101745.66;5015019;28;46590;-76
2021/11/24 02:44:51;;;;;;;;;24.25;20.75;;;;;6.33;74.48;101728.50;5015505;28;45907;-79
2021/11/24 02:47:19;;;;;;;;;20.75;20.75;;;;;6.42;74.15;101742.97;5014810;28;45853;-78
2021/11/24 02:49:51;;;;;;;;;23.25;20.00;;;;;6.28;74.48;101717.41;5015039;28;45716;-79
2021/11/24 02:52:18;;;;;;;;;28.75;22.00;;;;;6.32;74.41;101728.56;5014909;28;46745;-79
2021/11/24 02:58:05;;;;;;;;;26.75;23.75;;;;;6.40;74.58;101731.75;5002152;28;45669;-80
2021/11/24 03:00:33;;;;;;;;;24.25;21.25;;;;;6.42;74.45;101724.75;4995580;28;45844;-79
2021/11/24 03:02:58;;;;;;;;;25.50;22.50;;;;;6.43;74.60;101721.22;4994766;28;46816;-79
2021/11/24 03:05:26;;;;;;;;;27.25;22.75;;;;;6.44;74.43;101724.66;4995130;28;46477;-79
2021/11/24 03:07:52;;;;;;;;;29.25;24.00;;;;;6.44;74.13;101729.88;4994757;28;45894;-79
2021/11/24 03:10:18;;;;;;;;;28.75;25.00;;;;;6.44;74.38;101719.47;4995589;28;45792;-79
2021/11/24 03:12:44;;;;;;;;;26.50;21.25;;;;;6.42;73.92;101709.13;4995076;28;46196;-80
2021/11/24 03:15:10;;;;;;;;;25.75;20.25;;;;;6.42;74.14;101711.75;4994833;28;45664;-78
2021/11/24 03:17:37;;;;;;;;;30.50;23.00;;;;;6.40;74.53;101708.31;4994521;28;45662;-80
2021/11/24 03:20:04;;;;;;;;;32.50;25.00;;;;;6.38;74.37;101704.06;4995283;28;45488;-81
2021/11/24 03:22:29;;;;;;;;;28.25;23.50;;;;;6.36;74.26;101703.28;4994833;28;46978;-81
2021/11/24 03:28:16;;;;;;;;;27.25;22.50;;;;;6.26;74.59;101690.59;4994451;28;45962;-81
2021/11/24 03:30:42;;;;;;;;;24.25;20.25;;;;;6.28;74.36;101686.19;4994845;28;45518;-80
2021/11/24 03:33:07;;;;;;;;;26.00;23.75;;;;;6.30;74.57;101692.19;4994371;28;45533;-80
2021/11/24 03:35:35;;;;;;;;;31.00;22.75;;;;;6.30;74.21;101688.75;4994495;28;45928;-80
2021/11/24 03:38:03;;;;;;;;;26.50;20.25;;;;;6.26;74.62;101693.19;4997372;28;45795;-80
2021/11/24 03:40:31;;;;;;;;;25.00;23.75;;;;;6.26;74.06;101688.00;5001909;28;45708;-79
2021/11/24 03:42:58;;;;;;;;;28.00;24.50;;;;;6.24;74.59;101681.16;5001671;28;45701;-80
2021/11/24 03:45:26;;;;;;;;;27.75;21.75;;;;;6.25;74.11;101669.84;5001927;28;45596;-79
2021/11/24 03:47:52;;;;;;;;;25.00;23.00;;;;;6.15;74.29;101645.06;4996183;28;45845;-78
2021/11/24 03:50:18;;;;;;;;;26.25;23.25;;;;;6.30;74.42;101680.94;4993521;28;45823;-78
2021/11/24 03:52:44;;;;;;;;;26.50;23.50;;;;;6.27;74.51;101676.69;4994448;28;46013;-78
2021/11/24 03:58:31;;;;;;;;;29.25;24.25;;;;;6.22;74.39;101656.94;4996899;28;45940;-79
2021/11/24 04:00:56;;;;;;;;;16.00;16.00;;;;;6.24;74.48;101670.75;4994341;28;45629;-78
2021/11/24 04:03:22;;;;;;;;;25.50;20.75;;;;;6.10;74.36;101645.22;4975760;28;47489;-79
2021/11/24 04:05:52;;;;;;;;;28.25;21.25;;;;;6.09;74.51;101645.28;4994150;28;45841;-77
2021/11/24 04:08:17;;;;;;;;;24.50;23.50;;;;;5.99;74.50;101628.31;4993928;28;45721;-77
2021/11/24 04:10:43;;;;;;;;;25.50;21.25;;;;;6.06;74.40;101647.97;4994422;28;45731;-77
2021/11/24 04:13:08;;;;;;;;;26.50;20.25;;;;;6.16;74.43;101664.97;4994044;28;46455;-77
2021/11/24 04:15:34;;;;;;;;;23.75;20.25;;;;;6.09;74.55;101653.94;4994066;28;45627;-77
2021/11/24 04:17:59;;;;;;;;;28.50;24.50;;;;;6.11;74.46;101664.28;4993677;28;45644;-79
2021/11/24 04:20:24;;;;;;;;;36.75;27.50;;;;;6.07;74.75;101653.13;4993940;28;45718;-78
2021/11/24 04:22:50;;;;;;;;;22.50;19.50;;;;;6.03;74.65;101648.97;4976464;28;46511;-78
2021/11/24 04:28:37;;;;;;;;;29.75;23.50;;;;;5.76;74.83;101600.50;4993266;28;45624;-78
2021/11/24 04:31:06;;;;;;;;;26.00;20.00;;;;;6.03;74.78;101645.50;4993687;28;45840;-77
2021/11/24 04:33:32;;;;;;;;;30.25;22.75;;;;;5.95;74.73;101627.56;4993118;28;47368;-79
2021/11/24 04:35:57;;;;;;;;;33.25;23.00;;;;;6.03;74.97;101642.91;4993572;28;46593;-78
2021/11/24 04:38:22;;;;;;;;;27.25;22.50;;;;;6.03;74.80;101638.56;4974914;28;45757;-79
2021/11/24 04:40:48;;;;;;;;;26.25;22.75;;;;;6.06;74.48;101637.56;4993981;28;45538;-78
2021/11/24 04:43:15;;;;;;;;;23.25;21.25;;;;;6.04;74.61;101632.47;4993691;28;46453;-79
2021/11/24 04:45:40;;;;;;;;;31.75;24.75;;;;;6.07;74.41;101628.88;4993731;28;46148;-79
2021/11/24 04:48:06;;;;;;;;;24.00;23.00;;;;;5.94;74.85;101602.44;4993251;28;45673;-78
2021/11/24 04:50:35;;;;;;;;;22.50;19.75;;;;;6.07;74.57;101634.09;4993601;28;45768;-79
2021/11/24 04:53:00;;;;;;;;;24.00;20.00;;;;;6.04;75.04;101629.84;4993206;28;46407;-79
2021/11/24 04:58:52;;;;;;;;;30.25;24.50;;;;;6.02;74.53;101628.19;5005219;28;45835;-77
2021/11/24 05:01:18;;;;;;;;;33.50;26.25;;;;;5.93;74.43;101616.38;5013426;28;45868;-77
2021/11/24 05:03:44;;;;;;;;;35.75;26.25;;;;;5.73;74.45;101582.38;5013015;28;46283;-77
2021/11/24 05:06:09;;;;;;;;;36.00;27.00;;;;;5.60;74.98;101568.13;5012921;28;45651;-77
2021/11/24 05:08:35;;;;;;;;;38.25;25.75;;;;;5.94;74.83;101627.63;5012724;28;45607;-78
2021/11/24 05:14:27;;;;;;;;;25.25;21.50;;;;;5.93;74.66;101624.19;5017981;28;46171;-79
2021/11/24 05:16:53;;;;;;;;;28.75;23.25;;;;;5.89;75.00;101618.22;5018308;28;46216;-78
2021/11/24 05:19:20;;;;;;;;;28.75;26.50;;;;;5.92;74.63;101626.81;5018247;28;45873;-79
2021/11/24 05:21:51;;;;;;;;;31.50;26.25;;;;;5.94;74.67;101620.66;5016845;28;45818;-77
2021/11/24 05:24:18;;;;;;;;;29.50;24.75;;;;;5.97;74.72;101622.31;5013149;28;45520;-77
2021/11/24 05:26:44;;;;;;;;;30.25;25.25;;;;;5.95;74.39;101621.50;5012983;28;45859;-77
2021/11/24 05:29:10;;;;;;;;;30.25;23.50;;;;;5.72;74.88;101585.91;5013056;28;45878;-79
2021/11/24 05:31:35;;;;;;;;;26.50;21.75;;;;;5.98;74.55;101627.47;5013150;28;45742;-78
2021/11/24 05:34:03;;;;;;;;;27.75;23.50;;;;;6.01;74.73;101621.28;5012651;28;46428;-79
2021/11/24 05:36:28;;;;;;;;;31.00;23.50;;;;;5.99;74.46;101615.31;5013331;28;46074;-78
2021/11/24 05:38:54;;;;;;;;;33.75;26.75;;;;;6.05;74.52;101615.91;4994470;28;45814;-79
2021/11/24 05:44:46;;;;;;;;;23.75;22.00;;;;;6.06;74.31;101612.41;5012293;28;45757;-78
2021/11/24 05:47:49;;;;;;;;;27.25;21.25;;;;;6.02;74.53;101594.38;5012559;28;46416;-79
2021/11/24 05:49:57;;;;;;;;;20.25;18.50;;;;;6.01;74.03;101596.13;5014258;28;45536;-80
2021/11/24 05:52:22;;;;;;;;;29.50;22.75;;;;;5.98;74.38;101592.81;5016126;28;45807;-78
2021/11/24 05:54:48;;;;;;;;;23.25;20.50;;;;;6.01;74.63;101592.69;5016129;28;45781;-79
2021/11/24 05:57:13;;;;;;;;;25.25;21.25;;;;;5.97;74.55;101584.16;5015428;28;45733;-78
2021/11/24 05:59:39;;;;;;;;;27.75;22.00;;;;;5.90;74.62;101586.13;4997756;28;45734;-77
2021/11/24 06:02:04;;;;;;;;;24.25;21.25;;;;;5.93;74.17;101595.56;5015278;28;45778;-79
2021/11/24 06:04:29;;;;;;;;;25.00;24.00;;;;;5.89;74.37;101593.97;5016015;28;46712;-79
2021/11/24 06:06:55;;;;;;;;;21.75;18.50;;;;;5.85;74.53;101593.22;5015837;28;45721;-77
2021/11/24 06:09:20;;;;;;;;;22.25;18.25;;;;;5.92;74.57;101593.88;5015880;28;45630;-79
2021/11/24 06:11:46;;;;;;;;;27.00;22.25;;;;;5.94;74.50;101594.66;5016032;28;45729;-78
2021/11/24 06:14:11;;;;;;;;;25.75;21.75;;;;;5.97;74.31;101588.50;5015774;28;46632;-79
2021/11/24 06:16:36;;;;;;;;;24.50;19.75;;;;;5.88;73.83;101579.28;5015941;28;46132;-78
2021/11/24 06:19:02;;;;;;;;;20.50;16.50;;;;;5.90;73.98;101569.66;5015987;28;45800;-79
2021/11/24 06:21:27;;;;;;;;;26.25;19.75;;;;;5.87;74.43;101559.38;4997704;28;45883;-79
2021/11/24 06:23:53;;;;;;;;;23.75;20.25;;;;;5.76;74.07;101548.50;5016185;28;45610;-79
2021/11/24 06:29:40;;;;;;;;;19.75;16.75;;;;;5.90;74.11;101575.72;5017481;28;45917;-78
2021/11/24 06:32:06;;;;;;;;;21.75;18.75;;;;;5.92;74.32;101580.03;5018141;28;45725;-79
2021/11/24 06:34:31;;;;;;;;;23.00;19.00;;;;;5.91;73.90;101576.56;5018026;28;45857;-78
2021/11/24 06:36:57;;;;;;;;;21.50;19.00;;;;;5.90;74.09;101577.47;5017497;28;45599;-78
2021/11/24 06:39:24;;;;;;;;;24.50;23.25;;;;;5.90;74.10;101585.28;5018123;28;46231;-78
2021/11/24 06:45:13;;;;;;;;;21.75;18.00;;;;;5.80;73.81;101558.72;5030437;28;46098;-79
2021/11/24 06:47:40;;;;;;;;;20.75;17.00;;;;;5.72;74.07;101558.13;5038582;28;45424;-80
2021/11/24 06:50:07;;;;;;;;;19.00;16.75;;;;;5.78;74.34;101552.72;5037949;28;45485;-81
2021/11/24 06:52:33;;;;;;;;;25.00;18.00;;;;;5.57;74.05;101522.28;5039575;28;45934;-80
2021/11/24 06:54:58;;;;;;;;;22.75;16.00;;;;;5.85;73.79;101559.41;5035253;28;45750;-80
2021/11/24 06:57:24;;;;;;;;;22.50;16.50;;;;;5.83;73.94;101561.19;5031397;28;45906;-79
2021/11/24 06:59:49;;;;;;;;;20.50;19.50;;;;;5.57;73.89;101514.50;5035442;28;45239;-80
2021/11/24 07:02:14;;;;;;;;;27.00;20.00;;;;;5.79;73.87;101557.03;5018165;28;45272;-79
2021/11/24 07:04:41;;;;;;;;;25.25;17.75;;;;;5.78;74.10;101555.31;5034337;28;45496;-79
2021/11/24 07:07:07;;;;;;;;;20.25;19.25;;;;;5.80;74.28;101557.88;5032244;28;45522;-80
2021/11/24 07:09:32;;;;;;;;;29.75;18.50;;;;;5.79;73.74;101558.78;5025860;28;45762;-80
2021/11/24 07:15:19;;;;;;;;;23.50;17.75;;;;;5.78;73.71;101557.91;5016385;28;45843;-80
2021/11/24 07:17:45;;;;;;;;;23.00;21.25;;;;;5.78;73.84;101557.06;5016178;28;45696;-79
2021/11/24 07:20:10;;;;;;;;;24.25;22.00;;;;;5.75;73.83;101552.00;5017371;28;45706;-81
2021/11/24 07:22:36;;;;;;;;;19.00;16.75;;;;;5.74;73.41;101560.69;5019722;28;45552;-81
2021/11/24 07:25:03;;;;;;;;;20.50;18.25;;;;;5.70;73.89;101554.75;5017793;28;45607;-81
2021/11/24 07:27:29;;;;;;;;;27.25;19.75;;;;;5.72;73.54;101560.72;5016196;28;46224;-81
2021/11/24 07:29:54;;;;;;;;;27.75;20.75;;;;;5.40;73.56;101507.31;4997532;28;45690;-79
2021/11/24 07:32:20;;;;;;;;;22.25;19.75;;;;;5.54;73.51;101522.41;5016065;28;45687;-82
2021/11/24 07:34:46;;;;;;;;;22.25;17.00;;;;;5.72;73.58;101546.91;5015173;28;45599;-81
2021/11/24 07:37:11;;;;;;;;;21.25;17.25;;;;;5.71;73.48;101545.22;5014835;28;45944;-82
2021/11/24 07:39:36;;;;;;;;;27.25;21.25;;;;;5.64;73.34;101531.59;5015181;28;45556;-82
2021/11/24 07:45:24;;;;;;;;;20.25;16.00;;;;;5.66;73.98;101537.59;5014821;28;46229;-81
2021/11/24 07:47:49;;;;;;;;;19.75;15.00;;;;;5.70;73.41;101533.97;5015028;28;45667;-81
2021/11/24 07:50:15;;;;;;;;;26.75;19.25;;;;;5.65;73.92;101525.47;5014651;28;45759;-79
2021/11/24 07:52:40;;;;;;;;;23.25;17.50;;;;;5.68;73.46;101540.09;4996864;28;45623;-81
2021/11/24 07:55:06;;;;;;;;;21.75;19.00;;;;;5.68;73.61;101538.34;5014305;28;46042;-80
2021/11/24 07:57:31;;;;;;;;;29.50;21.75;;;;;5.69;73.74;101542.66;5014303;28;46176;-81
2021/11/24 07:59:57;;;;;;;;;21.75;16.25;;;;;5.71;73.65;101542.63;5014475;28;45657;-79
2021/11/24 08:02:23;;;;;;;;;23.50;22.00;;;;;5.70;73.45;101535.72;5014729;28;45564;-80
2021/11/24 08:04:49;;;;;;;;;20.75;18.50;;;;;5.70;73.74;101533.97;5014509;28;45622;-81
2021/11/24 08:07:15;;;;;;;;;24.75;19.25;;;;;5.74;73.51;101548.53;5014231;28;46286;-80
2021/11/24 08:09:40;;;;;;;;;24.75;18.50;;;;;5.60;73.41;101524.81;5014720;28;45863;-79
2021/11/24 08:15:27;;;;;;;;;24.75;18.25;;;;;5.67;73.22;101549.66;5014002;28;46092;-79
2021/11/24 08:17:53;;;;;;;;;16.25;11.75;;;;;5.68;72.86;101537.50;5012702;28;46168;-79
2021/11/24 08:20:19;;;;;;;;;27.25;19.25;;;;;5.62;73.07;101527.31;5014867;28;45692;-79
2021/11/24 08:22:44;;;;;;;;;24.00;20.00;;;;;5.67;72.92;101531.47;5017169;28;45634;-79
2021/11/24 08:25:10;;;;;;;;;23.25;16.75;;;;;5.70;73.23;101533.13;5020174;28;46432;-80
2021/11/24 08:30:58;;;;;;;;;25.50;20.50;;;;;5.62;72.76;101517.78;5018210;28;45985;-80
2021/11/24 08:33:23;;;;;;;;;23.25;19.25;;;;;5.81;73.23;101547.44;5014271;28;45628;-79
2021/11/24 08:35:48;;;;;;;;;19.25;16.25;;;;;5.77;72.68;101532.84;5014198;28;45719;-80
2021/11/24 08:38:15;;;;;;;;;20.00;16.50;;;;;5.83;73.11;101529.19;5016003;28;45916;-80
2021/11/24 08:40:41;;;;;;;;;24.75;19.50;;;;;5.87;73.18;101530.78;5016179;28;45591;-80
2021/11/24 08:43:06;;;;;;;;;25.75;19.00;;;;;5.91;72.87;101537.56;5014079;28;45959;-82
2021/11/24 08:45:33;;;;;;;;;22.00;19.00;;;;;5.87;72.45;101530.78;5013582;28;45626;-81
2021/11/24 08:47:59;;;;;;;;;27.00;19.00;;;;;5.92;72.84;101539.25;5013216;28;46246;-82
2021/11/24 08:50:24;;;;;;;;;25.75;17.00;;;;;5.88;72.46;101527.28;5013415;28;45657;-80
2021/11/24 08:52:50;;;;;;;;;21.50;17.25;;;;;5.88;72.42;101519.50;5013621;28;45711;-80
2021/11/24 08:55:17;;;;;;;;;24.00;18.25;;;;;5.90;72.82;101517.66;5012931;28;45598;-80
2021/11/24 09:01:17;;;;;;;;;21.00;17.25;;;;;5.88;72.55;101498.69;4999526;28;45742;-81
2021/11/24 09:03:43;;;;;;;;;23.25;16.50;;;;;5.83;72.27;101485.78;4993541;28;45698;-80
2021/11/24 09:06:10;;;;;;;;;18.00;15.75;;;;;5.90;72.04;101504.66;4993473;28;45833;-80
2021/11/24 09:08:35;;;;;;;;;23.25;16.75;;;;;5.95;72.03;101502.72;4994548;28;46135;-80
2021/11/24 09:11:02;;;;;;;;;22.75;19.50;;;;;5.86;72.03;101471.84;4995393;28;45706;-80
2021/11/24 09:13:28;;;;;;;;;18.50;16.25;;;;;5.92;72.02;101474.25;4993673;28;45624;-81
2021/11/24 09:15:53;;;;;;;;;22.50;19.00;;;;;5.90;72.28;101463.06;4993200;28;46599;-79
2021/11/24 09:18:19;;;;;;;;;26.75;19.25;;;;;6.11;72.06;101487.38;4993032;28;45662;-79
2021/11/24 09:20:45;;;;;;;;;23.75;20.00;;;;;6.15;71.95;101489.00;4993417;28;45547;-77
2021/11/24 09:23:13;;;;;;;;;20.75;20.00;;;;;6.04;72.14;101459.94;4994559;28;45705;-78
2021/11/24 09:25:49;;;;;;;;;28.75;23.00;;;;;6.12;72.14;101471.72;4996454;28;45845;-82
2021/11/24 09:28:15;;;;;;;;;20.50;17.75;;;;;6.32;71.61;101483.94;4996100;28;45750;-81
2021/11/24 09:30:41;;;;;;;;;22.50;18.25;;;;;6.32;71.94;101494.34;4996234;28;45673;-79
2021/11/24 09:33:08;;;;;;;;;27.75;24.00;;;;;6.33;71.72;101498.66;4996473;28;45656;-81
2021/11/24 09:35:34;;;;;;;;;24.00;20.50;;;;;6.24;71.56;101479.06;4996192;28;45552;-81
2021/11/24 09:38:01;;;;;;;;;22.75;19.50;;;;;6.09;71.22;101469.25;4996025;28;45651;-81
2021/11/24 09:40:26;;;;;;;;;22.50;16.75;;;;;6.22;71.45;101485.22;4996476;28;45608;-81
2021/11/24 09:46:16;;;;;;;;;23.50;18.25;;;;;6.17;71.27;101485.41;4995942;28;45580;-82
2021/11/24 09:48:43;;;;;;;;;22.75;20.00;;;;;6.14;71.28;101484.69;4995514;28;46650;-81
2021/11/24 09:51:09;;;;;;;;;20.50;18.50;;;;;6.16;71.55;101480.25;4996328;28;45665;-80
2021/11/24 09:53:36;;;;;;;;;21.00;17.25;;;;;6.09;71.87;101466.66;4996275;28;45851;-82
2021/11/24 09:56:02;;;;;;;;;29.50;20.00;;;;;6.16;71.42;101473.28;4998433;28;46390;-80
2021/11/24 09:58:27;;;;;;;;;27.00;20.50;;;;;6.25;71.45;101490.31;5001917;28;46055;-80
2021/11/24 10:00:52;;;;;;;;;20.75;18.75;;;;;6.07;71.20;101449.41;4993624;28;45681;-79
2021/11/24 10:03:19;;;;;;;;;30.00;22.50;;;;;6.26;71.52;101487.63;5022588;28;45595;-81
2021/11/24 10:05:47;;;;;;;;;23.75;20.00;;;;;6.15;71.16;101457.78;5017552;28;46348;-78
2021/11/24 10:08:13;;;;;;;;;23.25;20.75;;;;;6.28;71.06;101477.19;5015957;28;45969;-80
2021/11/24 10:10:38;;;;;;;;;19.75;16.25;;;;;6.26;71.15;101469.41;4998075;28;46303;-80
2021/11/24 10:16:29;;;;;;;;;26.25;22.25;;;;;6.30;71.41;101467.56;5015375;28;45537;-83
2021/11/24 10:18:57;;;;;;;;;26.25;20.00;;;;;6.35;71.32;101464.78;5015519;28;46148;-79
2021/11/24 10:21:23;;;;;;;;;22.00;18.00;;;;;6.37;71.06;101455.97;5015809;28;45957;-79
2021/11/24 10:23:50;;;;;;;;;25.00;21.50;;;;;6.44;71.05;101456.59;5015677;28;45602;-80
2021/11/24 10:26:32;;;;;;;;;24.75;19.75;;;;;6.42;71.05;101461.03;5015351;28;45764;-80
2021/11/24 10:29:01;;;;;;;;;24.25;21.00;;;;;6.41;71.13;101449.78;5015236;28;46641;-80
2021/11/24 10:31:31;;;;;;;;;28.50;20.00;;;;;6.37;71.16;101439.56;5015366;28;45909;-79
2021/11/24 10:33:58;;;;;;;;;29.00;22.75;;;;;6.33;70.98;101421.44;5015433;28;45587;-80
2021/11/24 10:36:24;;;;;;;;;26.50;20.75;;;;;6.45;70.65;101438.31;5014264;28;46165;-80
2021/11/24 10:38:52;;;;;;;;;16.75;13.50;;;;;6.47;70.53;101444.31;5014951;28;46498;-79
2021/11/24 10:41:39;;;;;;;;;27.75;21.75;;;;;6.50;70.91;101433.78;5015228;28;45495;-80
2021/11/24 10:44:06;;;;;;;;;31.00;24.50;;;;;6.40;70.49;101403.84;5014706;28;45646;-80
2021/11/24 10:46:34;;;;;;;;;28.25;23.50;;;;;6.55;70.60;101418.81;5014548;28;46358;-80
2021/11/24 10:49:05;;;;;;;;;24.00;21.50;;;;;6.59;70.32;101416.91;5014806;28;46214;-79
2021/11/24 10:51:41;;;;;;;;;26.75;19.00;;;;;6.50;70.48;101393.88;5014708;28;45867;-78
2021/11/24 10:54:14;;;;;;;;;25.75;21.25;;;;;6.63;70.00;101400.28;5014948;28;45618;-81
2021/11/24 10:57:00;;;;;;;;;24.00;21.00;;;;;6.70;70.24;101397.34;5014536;28;46354;-80
2021/11/24 10:59:26;;;;;;;;;24.50;19.00;;;;;6.66;70.18;101384.50;4996579;28;46583;-81
2021/11/24 11:01:52;;;;;;;;;22.50;22.50;;;;;6.83;70.28;101395.06;4997286;28;45925;-77
2021/11/24 11:04:18;;;;;;;;;25.25;21.00;;;;;6.91;70.02;101389.53;4994612;28;45682;-75
2021/11/24 11:06:43;;;;;;;;;22.25;20.00;;;;;6.88;69.68;101369.66;4993751;28;46432;-76
2021/11/24 11:09:09;;;;;;;;;24.25;20.25;;;;;7.01;69.68;101383.00;4994236;28;46959;-73
2021/11/24 11:11:38;;;;;;;;;29.50;23.50;;;;;7.05;69.41;101367.16;4993852;28;45573;-75
2021/11/24 11:14:18;;;;;;;;;19.00;18.00;;;;;7.19;69.24;101371.75;4994165;28;45688;-75
2021/11/24 11:16:53;;;;;;;;;28.25;22.00;;;;;7.25;69.18;101363.66;4993785;28;46538;-75
2021/11/24 11:19:38;;;;;;;;;22.50;21.25;;;;;7.30;68.82;101350.41;4994349;28;46194;-76
2021/11/24 11:22:03;;;;;;;;;23.75;21.00;;;;;7.38;68.82;101350.94;4993918;28;45633;-74
2021/11/24 11:24:29;;;;;;;;;26.25;22.00;;;;;7.44;68.44;101348.91;4994029;28;45803;-76
2021/11/24 11:26:56;;;;;;;;;25.75;21.75;;;;;7.50;67.86;101335.56;4993656;28;45593;-76
2021/11/24 11:29:21;;;;;;;;;28.00;21.25;;;;;7.57;67.74;101331.75;4994076;28;45995;-76
2021/11/24 11:31:48;;;;;;;;;26.00;21.25;;;;;7.65;67.36;101330.56;4993584;28;45493;-76
2021/11/24 11:34:14;;;;;;;;;26.25;22.25;;;;;7.65;67.36;101325.34;4994895;28;45700;-77
2021/11/24 11:36:42;;;;;;;;;29.75;26.00;;;;;7.68;67.23;101318.19;4996320;28;47520;-74
2021/11/24 11:39:07;;;;;;;;;22.25;19.25;;;;;7.74;66.86;101315.31;4996806;28;46339;-74
2021/11/24 11:41:36;;;;;;;;;22.75;21.00;;;;;7.69;67.01;101306.84;4996727;28;45756;-74
2021/11/24 11:44:03;;;;;;;;;26.75;22.25;;;;;7.66;66.73;101290.53;4996161;28;45494;-73
2021/11/24 11:46:33;;;;;;;;;29.25;23.25;;;;;7.77;66.48;101302.13;4993278;28;46980;-74
2021/11/24 11:49:07;;;;;;;;;28.00;25.00;;;;;7.81;66.40;101292.38;4994546;28;46025;-74
2021/11/24 11:51:39;;;;;;;;;26.25;19.75;;;;;7.80;65.71;101288.94;4994000;28;45563;-75
2021/11/24 11:54:06;;;;;;;;;23.25;22.25;;;;;7.81;66.18;101282.81;4994320;28;45693;-74
2021/11/24 11:56:34;;;;;;;;;30.75;26.00;;;;;7.92;65.82;101277.91;4993440;28;46460;-74
2021/11/24 11:59:10;;;;;;;;;22.00;19.00;;;;;7.99;65.87;101278.41;4994005;28;45695;-75
2021/11/24 12:01:41;;;;;;;;;27.50;25.75;;;;;8.06;65.74;101273.75;4993804;28;45665;-75
2021/11/24 12:04:19;;;;;;;;;25.75;22.00;;;;;8.12;65.02;101263.00;4993836;28;45861;-75
2021/11/24 12:06:53;;;;;;;;;19.50;17.50;;;;;8.18;64.76;101255.72;4993606;28;46605;-75
2021/11/24 12:09:19;;;;;;;;;26.00;21.25;;;;;8.24;64.88;101246.72;4993759;28;47069;-74
2021/11/24 12:12:00;;;;;;;;;24.50;21.50;;;;;8.30;64.31;101242.09;4993918;28;45639;-76
2021/11/24 12:14:50;;;;;;;;;24.75;21.75;;;;;8.35;64.11;101239.22;4975510;28;45813;-76
2021/11/24 12:17:37;;;;;;;;;24.50;22.25;;;;;8.45;63.70;101242.19;4992035;28;45469;-76
2021/11/24 12:20:14;;;;;;;;;24.25;22.50;;;;;8.42;63.46;101230.97;4985400;28;45767;-77
2021/11/24 12:22:48;;;;;;;;;25.50;21.00;;;;;8.38;63.69;101219.00;4992709;28;46003;-77
2021/11/24 12:25:30;;;;;;;;;28.00;23.75;;;;;8.38;63.51;101207.72;4992344;28;45837;-77
2021/11/24 12:28:00;;;;;;;;;30.50;23.00;;;;;8.40;63.83;101208.50;4991799;28;45766;-76
2021/11/24 12:33:29;;;;;;;;;24.75;22.75;;;;;8.50;63.40;101193.19;4991884;28;45983;-76